Aérodrome :
LOGIN :

S'inscrire | Disclaimer

   EN    FR    IT 

 










Légende :    VFR   VFR Marginal   IFR   IFR Intensif   IFR Très Intensif
Visi : 
Plafond : 
>= 8 km
>= 3000ft
5 à 8 km
1000 à 3000 ft
1500m à 5 km
500 à 1000 ft
800 à 1500m
200 à 500 ft
< 800m
< 200 ft
Symboles :   Orages  Brouillard  Fortes neiges  Fortes précipitations  Vent > 20 kt
SIGMETs :   Divers  Orages  Givrage  Turbulence  Onde Orograph.  Cendres Volcan.






- Altitude de l'aérodrome : 270 ft
- Code IATA : OXF


EGTK - Oxford (Kidlington)

DERNIER METAR :
  • 191650Z 26004KT 9999 FEW030 SCT044 11/08 Q1002

METARs EXPIRÉS :
  • 191620Z 26005KT 9999 VCSH FEW030CB SCT046 12/07 Q1001
  • 191550Z 27007KT 9999 VCSH SCT030CB 13/08 Q1001
  • 191450Z 26008KT 9999 VCSH SCT030 14/08 Q1000
  • 191350Z 26007KT 9999 SCT027 BKN040 12/08 Q1000

TAF TAF EGTK
Valide du 19 à 15h jusqu'au 19 à 22h UTC


191353Z 1915/1922 23008KT 9999 SCT020
PROB30
TEMPO 1915/1917 8000 SHRA



MET'MAP, la Météo Aéronautique d'un coup d'oeil ! - Copyright ORBIFLY Décembre 2007 - Disclaimer

ORBIFLY MET'MAP TEAM :

Programmation & Développement : Alexandra Zaïnal
Conception & Développement : Baudouin d'Aumeries
Co-Programmation & Développement : Marc-Olivier Méhu
Soutien technique & logistique : Manuel Goepfert

Contact : metmap@orbifly.com




SOURCES & CREDITS :

   NOAA